.
WxDataArchive / Data Records for 2007-12-18
2007-12-17 December 2007 2007-12-19

Data Records for Tuesday, 18 December 2007

Time	Temp	Chill	HIndex	Humid	Dewpt	 Wind 	HiWind	WindDir	Rain 	Barom 
-----	----	-----	------	-----	-----	------	------	-------	-----	----- 
00:00	19.9	19.9	19.9	89	17.2	1	3	248	0.00	30.242 
00:05	19.9	19.9	19.9	89	17.2	1	4	248	0.00	30.240 
00:10	20.0	20.0	20.0	89	17.3	2	9	248	0.00	30.240 
00:15	20.0	20.0	20.0	90	17.5	2	5	248	0.00	30.240 
00:20	20.0	20.0	20.0	90	17.5	1	4	225	0.00	30.242 
00:25	20.2	20.2	20.2	90	17.7	1	5	225	0.00	30.244 
00:30	20.3	20.3	20.3	90	17.8	2	5	248	0.00	30.240 
00:35	20.5	20.5	20.5	90	18.0	3	6	248	0.00	30.242 
00:40	20.6	20.6	20.6	90	18.1	3	7	248	0.00	30.243 
00:45	20.8	20.8	20.8	90	18.3	3	7	248	0.00	30.241 
00:50	20.8	20.8	20.8	90	18.3	1	4	248	0.00	30.240 
00:55	21.0	21.0	21.0	91	18.8	2	5	248	0.00	30.239 
01:00	21.0	21.0	21.0	91	18.8	2	5	248	0.00	30.238 
01:05	21.1	21.1	21.1	91	18.9	2	6	248	0.00	30.234 
01:10	21.1	21.1	21.1	91	18.9	2	5	248	0.00	30.233 
01:15	21.1	21.1	21.1	91	18.9	1	4	248	0.00	30.234 
01:20	21.3	21.3	21.3	91	19.1	1	4	248	0.00	30.232 
01:25	21.3	21.3	21.3	91	19.1	1	3	248	0.00	30.228 
01:30	21.3	21.3	21.3	91	19.1	1	4	248	0.00	30.226 
01:35	21.3	21.3	21.3	91	19.1	1	3	248	0.00	30.224 
01:40	21.3	21.3	21.3	91	19.1	0	2	248	0.00	30.225 
01:45	21.3	21.3	21.3	91	19.1	1	4	248	0.00	30.224 
01:50	21.3	21.3	21.3	91	19.1	1	2	248	0.00	30.224 
01:55	21.4	21.4	21.4	91	19.2	2	4	248	0.00	30.224 
02:00	21.4	21.4	21.4	91	19.2	2	5	248	0.00	30.225 
02:05	21.6	21.6	21.6	91	19.4	2	6	248	0.00	30.224 
02:10	21.6	21.6	21.6	91	19.4	2	6	248	0.00	30.225 
02:15	21.6	21.6	21.6	91	19.4	1	3	248	0.00	30.227 
02:20	21.6	21.6	21.6	91	19.4	1	6	248	0.00	30.234 
02:25	21.6	21.6	21.6	91	19.4	1	3	248	0.00	30.235 
02:30	21.6	21.6	21.6	91	19.4	1	6	248	0.00	30.235 
02:35	21.6	21.6	21.6	91	19.4	1	3	248	0.00	30.235 
02:40	21.6	21.6	21.6	91	19.4	1	4	248	0.00	30.235 
02:45	21.4	21.4	21.4	91	19.2	2	6	248	0.00	30.237 
02:50	21.4	21.4	21.4	91	19.2	0	4	248	0.00	30.235 
02:55	21.1	21.1	21.1	91	18.9	0	1	248	0.00	30.231 
03:00	21.0	21.0	21.0	91	18.8	0	1	248	0.00	30.229 
03:05	20.6	20.6	20.6	91	18.4	0	2	248	0.00	30.230 
03:10	20.6	20.6	20.6	91	18.4	0	2	248	0.00	30.235 
03:15	20.5	20.5	20.5	91	18.3	0	1	248	0.00	30.235 
03:20	20.3	20.3	20.3	91	18.1	0	0	---	0.00	30.233 
03:25	20.0	20.0	20.0	90	17.5	0	1	248	0.00	30.232 
03:30	19.7	19.7	19.7	90	17.3	0	1	248	0.00	30.235 
03:35	19.5	19.5	19.5	91	17.3	0	1	248	0.00	30.235 
03:40	19.5	19.5	19.5	91	17.3	0	2	248	0.00	30.233 
03:45	19.5	19.5	19.5	91	17.3	0	2	248	0.00	30.231 
03:50	19.5	19.5	19.5	91	17.3	0	2	248	0.00	30.230 
03:55	19.5	19.5	19.5	91	17.3	0	1	225	0.00	30.228 
04:00	19.4	19.4	19.4	91	17.2	0	0	---	0.00	30.225 
04:05	19.2	19.2	19.2	91	17.0	0	1	225	0.00	30.223 
04:10	19.1	19.1	19.1	91	16.9	0	0	---	0.00	30.220 
04:15	18.9	18.9	18.9	90	16.5	0	0	---	0.00	30.216 
04:20	18.6	18.6	18.6	91	16.4	0	0	---	0.00	30.215 
04:25	18.6	18.6	18.6	91	16.4	0	1	225	0.00	30.214 
04:30	18.4	18.4	18.4	91	16.2	0	0	---	0.00	30.219 
04:35	18.3	18.3	18.3	90	15.9	0	0	---	0.00	30.218 
04:40	18.1	18.1	18.1	90	15.7	0	0	---	0.00	30.216 
04:45	18.0	18.0	18.0	90	15.6	0	0	---	0.00	30.217 
04:50	17.7	17.7	17.7	90	15.3	0	0	---	0.00	30.219 
04:55	17.3	17.3	17.3	90	14.9	0	0	---	0.00	30.220 
05:00	16.9	16.9	16.9	89	14.2	0	0	---	0.00	30.218 
05:05	16.7	16.7	16.7	90	14.3	0	0	---	0.00	30.222 
05:10	16.5	16.5	16.5	90	14.1	0	0	---	0.00	30.224 
05:15	16.5	16.5	16.5	90	14.1	0	1	225	0.00	30.222 
05:20	16.4	16.4	16.4	90	14.0	0	0	---	0.00	30.216 
05:25	16.2	16.2	16.2	90	13.8	0	1	225	0.00	30.214 
05:30	16.2	16.2	16.2	90	13.8	0	1	225	0.00	30.212 
05:35	16.2	16.2	16.2	90	13.8	0	0	---	0.00	30.211 
05:40	15.9	15.9	15.9	89	13.2	0	0	---	0.00	30.211 
05:45	15.6	15.6	15.6	89	12.9	0	0	---	0.00	30.213 
05:50	15.4	15.4	15.4	89	12.8	0	0	---	0.00	30.215 
05:55	15.1	15.1	15.1	89	12.5	0	0	---	0.00	30.215 
06:00	14.8	14.8	14.8	89	12.2	0	0	---	0.00	30.215 
06:05	14.6	14.6	14.6	89	12.0	0	0	---	0.00	30.216 
06:10	14.6	14.6	14.6	89	12.0	0	0	---	0.00	30.217 
06:15	14.3	14.3	14.3	88	11.4	0	0	---	0.00	30.216 
06:20	14.0	14.0	14.0	88	11.1	0	0	---	0.00	30.215 
06:25	13.8	13.8	13.8	88	10.9	0	0	---	0.00	30.212 
06:30	13.6	13.6	13.6	88	10.7	0	1	225	0.00	30.209 
06:35	14.0	14.0	14.0	89	11.4	0	1	225	0.00	30.203 
06:40	14.1	14.1	14.1	89	11.5	0	0	---	0.00	30.208 
06:45	14.0	14.0	14.0	89	11.4	0	0	---	0.00	30.212 
06:50	13.8	13.8	13.8	88	10.9	0	0	---	0.00	30.213 
06:55	13.6	13.6	13.6	88	10.7	0	0	---	0.00	30.210 
07:00	13.5	13.5	13.5	88	10.6	0	0	---	0.00	30.212 
07:05	13.5	13.5	13.5	88	10.6	0	0	---	0.00	30.213 
07:10	13.1	13.1	13.1	88	10.2	0	0	---	0.00	30.215 
07:15	12.9	12.9	12.9	88	10.0	0	0	---	0.00	30.217 
07:20	12.8	12.8	12.8	88	9.9	0	0	---	0.00	30.215 
07:25	12.6	12.6	12.6	88	9.7	0	0	---	0.00	30.214 
07:30	12.4	12.4	12.4	88	9.5	0	0	---	0.00	30.213 
07:35	12.3	12.3	12.3	88	9.4	0	0	---	0.00	30.214 
07:40	12.3	12.3	12.3	88	9.4	0	1	225	0.00	30.207 
07:45	12.6	12.6	12.6	88	9.7	0	0	---	0.00	30.204 
07:50	12.9	12.9	12.9	88	10.0	0	0	---	0.00	30.208 
07:55	13.1	13.1	13.1	88	10.2	0	0	---	0.00	30.209 
08:00	12.9	12.9	12.9	88	10.0	0	0	---	0.00	30.210 
08:05	12.9	12.9	12.9	88	10.0	0	0	---	0.00	30.208 
08:10	12.8	12.8	12.8	88	9.9	0	0	---	0.00	30.207 
08:15	12.8	12.8	12.8	88	9.9	0	0	---	0.00	30.205 
08:20	13.1	13.1	13.1	89	10.5	0	0	---	0.00	30.202 
08:25	14.0	14.0	14.0	89	11.4	0	1	225	0.00	30.198 
08:30	14.6	14.6	14.6	90	12.2	0	0	---	0.00	30.198 
08:35	14.9	14.9	14.9	90	12.5	0	0	---	0.00	30.195 
08:40	15.1	15.1	15.1	89	12.5	0	0	---	0.00	30.196 
08:45	15.4	15.4	15.4	90	13.0	0	1	225	0.00	30.193 
08:50	15.6	15.6	15.6	90	13.2	0	1	225	0.00	30.191 
08:55	15.9	15.9	15.9	90	13.5	0	1	225	0.00	30.192 
09:00	16.1	16.1	16.1	90	13.7	0	1	225	0.00	30.190 
09:05	16.4	16.4	16.4	90	14.0	0	0	---	0.00	30.191 
09:10	16.5	16.5	16.5	90	14.1	0	0	---	0.00	30.189 
09:15	16.9	16.9	16.9	90	14.5	0	1	225	0.00	30.184 
09:20	17.2	17.2	17.2	90	14.8	0	1	225	0.00	30.186 
09:25	17.3	17.3	17.3	90	14.9	0	0	---	0.00	30.187 
09:30	17.7	17.7	17.7	90	15.3	0	0	---	0.00	30.190 
09:35	18.0	18.0	18.0	90	15.6	0	0	---	0.00	30.193 
09:40	18.4	18.4	18.4	90	16.0	0	1	225	0.00	30.193 
09:45	18.8	18.8	18.8	90	16.4	0	1	225	0.00	30.196 
09:50	18.9	18.9	18.9	90	16.5	0	0	---	0.00	30.196 
09:55	19.2	19.2	19.2	90	16.8	0	1	225	0.00	30.195 
10:00	19.5	19.5	19.5	90	17.1	0	1	225	0.00	30.192 
10:05	19.9	19.9	19.9	90	17.5	0	1	225	0.00	30.184 
10:10	20.3	20.3	20.3	90	17.8	0	2	225	0.00	30.185 
10:15	20.8	20.8	20.8	90	18.3	0	1	202	0.00	30.190 
10:20	21.4	21.4	21.4	91	19.2	0	1	202	0.00	30.190 
10:25	21.9	21.9	21.9	91	19.7	0	1	202	0.00	30.187 
10:30	22.2	22.2	22.2	91	20.0	0	1	202	0.00	30.184 
10:35	22.5	22.5	22.5	91	20.3	0	1	202	0.00	30.181 
10:40	22.9	22.9	22.9	90	20.4	0	2	180	0.00	30.179 
10:45	23.2	23.2	23.2	90	20.7	0	1	180	0.00	30.177 
10:50	23.6	23.6	23.6	91	21.4	0	1	180	0.00	30.175 
10:55	24.4	24.4	24.4	91	22.2	0	0	---	0.00	30.176 
11:00	25.1	25.1	25.1	91	22.9	0	0	---	0.00	30.180 
11:05	25.8	25.8	25.8	90	23.3	0	1	180	0.00	30.176 
11:10	26.7	26.7	26.7	89	23.9	0	2	180	0.00	30.173 
11:15	27.8	27.8	27.8	88	24.7	0	2	180	0.00	30.170 
11:20	28.8	28.8	28.8	85	24.9	1	2	135	0.00	30.166 
11:25	29.8	29.8	29.8	82	25.0	1	4	135	0.00	30.155 
11:30	30.7	30.7	30.7	80	25.3	1	4	135	0.00	30.154 
11:35	31.6	31.6	31.6	79	25.8	1	6	112	0.00	30.152 
11:40	32.2	32.2	32.2	77	25.8	1	5	112	0.00	30.149 
11:45	32.8	32.8	32.8	77	26.4	1	3	112	0.00	30.144 
11:50	33.2	33.2	33.2	76	26.5	1	4	90	0.00	30.142 
11:55	33.7	33.7	33.7	75	26.6	1	6	90	0.00	30.137 
12:00	34.0	34.0	34.0	75	26.9	1	4	22	0.00	30.133 
12:05	34.3	34.3	34.3	74	26.9	1	4	135	0.00	30.127 
12:10	34.6	34.6	34.6	74	27.2	1	5	112	0.00	30.122 
12:15	34.7	34.7	34.7	73	26.9	2	6	112	0.00	30.116 
12:20	35.0	35.0	35.0	73	27.2	2	5	112	0.00	30.115 
12:25	35.3	35.3	35.3	72	27.2	2	5	90	0.00	30.113 
12:30	35.5	35.5	35.5	72	27.4	1	4	248	0.00	30.110 
12:35	35.5	35.5	35.5	72	27.4	2	5	90	0.00	30.105 
12:40	35.5	35.5	35.5	73	27.7	2	6	90	0.00	30.101 
12:45	35.8	35.8	35.8	73	28.0	0	3	90	0.00	30.100 
12:50	35.9	35.9	35.9	72	27.8	1	5	112	0.00	30.097 
12:55	36.0	36.0	36.0	71	27.5	1	2	45	0.00	30.094 
13:00	36.2	36.2	36.2	71	27.7	1	3	135	0.00	30.090 
13:05	36.2	36.2	36.2	70	27.4	2	10	90	0.00	30.086 
13:10	36.3	36.3	36.3	71	27.8	1	4	90	0.00	30.084 
13:15	36.3	36.3	36.3	70	27.5	2	4	112	0.00	30.083 
13:20	36.2	36.2	36.2	71	27.7	2	5	90	0.00	30.081 
13:25	36.2	36.2	36.2	71	27.7	2	5	90	0.00	30.077 
13:30	36.2	36.2	36.2	71	27.7	1	4	90	0.01	30.071 
13:35	36.2	36.2	36.2	71	27.7	2	6	135	0.00	30.068 
13:40	36.3	36.3	36.3	71	27.8	1	5	135	0.00	30.065 
13:45	36.3	36.3	36.3	71	27.8	2	7	90	0.01	30.061 
13:50	36.3	36.3	36.3	70	27.5	2	5	112	0.00	30.055 
13:55	36.6	36.6	36.6	69	27.4	3	8	112	0.00	30.050 
14:00	36.8	36.8	36.8	69	27.6	3	6	90	0.00	30.046 
14:05	37.2	37.2	37.2	68	27.6	2	9	135	0.01	30.043 
14:10	37.6	37.6	37.6	67	27.7	2	5	90	0.00	30.038 
14:15	37.8	37.8	37.8	67	27.8	2	5	90	0.01	30.035 
14:20	37.9	37.9	37.9	66	27.6	2	6	112	0.00	30.032 
14:25	37.8	37.8	37.8	66	27.5	3	7	90	0.00	30.030 
14:30	37.6	37.6	37.6	67	27.7	2	5	112	0.00	30.024 
14:35	37.8	37.8	37.8	67	27.8	2	7	112	0.01	30.022 
14:40	37.6	37.6	37.6	67	27.7	3	7	112	0.00	30.020 
14:45	37.5	34.4	37.5	67	27.6	4	12	90	0.01	30.018 
14:50	37.5	37.5	37.5	68	27.9	2	6	112	0.00	30.013 
14:55	37.5	37.5	37.5	68	27.9	3	8	90	0.00	30.009 
15:00	37.6	37.6	37.6	68	28.0	2	5	112	0.00	30.005 
15:05	37.6	37.6	37.6	68	28.0	2	6	112	0.01	30.008 
15:10	37.6	37.6	37.6	68	28.0	2	6	90	0.00	30.008 
15:15	37.6	37.6	37.6	68	28.0	2	6	90	0.00	30.005 
15:20	37.5	37.5	37.5	68	27.9	2	6	90	0.01	30.004 
15:25	37.5	37.5	37.5	68	27.9	2	5	90	0.00	30.004 
15:30	37.3	37.3	37.3	68	27.7	3	11	90	0.00	30.003 
15:35	37.2	37.2	37.2	69	28.0	2	5	112	0.01	30.001 
15:40	37.2	37.2	37.2	68	27.6	3	6	90	0.00	30.001 
15:45	37.2	37.2	37.2	69	28.0	2	5	90	0.00	30.003 
15:50	37.2	37.2	37.2	69	28.0	2	5	135	0.01	30.003 
15:55	37.2	37.2	37.2	69	28.0	2	7	90	0.00	30.002 
16:00	37.0	37.0	37.0	69	27.8	2	5	90	0.00	29.999 
16:05	37.0	37.0	37.0	69	27.8	2	6	90	0.00	30.000 
16:10	37.0	37.0	37.0	69	27.8	2	5	90	0.00	30.004 
16:15	37.0	37.0	37.0	69	27.8	2	6	112	0.01	30.005 
16:20	36.9	36.9	36.9	69	27.7	2	4	68	0.00	30.003 
16:25	36.9	36.9	36.9	69	27.7	2	5	112	0.00	30.002 
16:30	36.8	36.8	36.8	70	27.9	1	4	90	0.00	30.004 
16:35	36.6	36.6	36.6	70	27.8	2	4	112	0.00	30.003 
16:40	36.6	36.6	36.6	70	27.8	1	6	68	0.01	30.004 
16:45	36.6	36.6	36.6	70	27.8	2	5	112	0.00	30.002 
16:50	36.5	36.5	36.5	70	27.7	1	5	112	0.00	30.001 
16:55	36.3	36.3	36.3	70	27.5	1	6	90	0.00	30.005 
17:00	36.2	36.2	36.2	71	27.7	1	5	90	0.00	30.001 
17:05	36.0	36.0	36.0	70	27.2	1	5	90	0.00	30.002 
17:10	36.0	36.0	36.0	71	27.5	1	4	68	0.00	30.005 
17:15	35.8	35.8	35.8	71	27.3	1	3	68	0.00	30.008 
17:20	35.8	35.8	35.8	71	27.3	1	2	158	0.01	30.010 
17:25	35.6	35.6	35.6	72	27.5	1	2	292	0.00	30.009 
17:30	35.5	35.5	35.5	72	27.4	0	2	315	0.00	30.007 
17:35	35.2	35.2	35.2	72	27.1	0	2	22	0.00	30.007 
17:40	35.0	35.0	35.0	73	27.2	0	1	22	0.00	30.006 
17:45	34.9	34.9	34.9	73	27.1	1	3	22	0.00	30.003 
17:50	34.7	34.7	34.7	73	26.9	0	2	90	0.00	30.002 
17:55	34.9	34.9	34.9	73	27.1	1	3	90	0.00	29.998 
18:00	34.7	34.7	34.7	73	26.9	1	3	112	0.00	29.997 
18:05	34.7	34.7	34.7	73	26.9	0	2	112	0.00	29.999 
18:10	34.6	34.6	34.6	73	26.9	1	3	90	0.00	29.996 
18:15	34.6	34.6	34.6	73	26.9	1	3	90	0.00	29.996 
18:20	34.6	34.6	34.6	73	26.9	1	3	112	0.00	29.992 
18:25	34.4	34.4	34.4	73	26.7	1	3	112	0.00	29.994 
18:30	34.3	34.3	34.3	73	26.6	0	1	112	0.00	29.994 
18:35	34.1	34.1	34.1	73	26.4	0	3	90	0.00	29.991 
18:40	34.0	34.0	34.0	73	26.3	0	2	90	0.00	29.992 
18:45	33.8	33.8	33.8	73	26.1	0	1	90	0.00	29.991 
18:50	33.7	33.7	33.7	74	26.3	0	2	90	0.00	29.989 
18:55	33.7	33.7	33.7	74	26.3	0	2	90	0.00	29.990 
19:00	33.5	33.5	33.5	74	26.1	0	2	90	0.00	29.988 
19:05	33.5	33.5	33.5	74	26.1	0	4	90	0.00	29.988 
19:10	33.7	33.7	33.7	73	26.0	1	4	248	0.00	29.989 
19:15	34.0	34.0	34.0	73	26.3	1	6	248	0.01	29.990 
19:20	34.0	34.0	34.0	72	25.9	1	5	248	0.00	29.990 
19:25	34.1	34.1	34.1	72	26.0	0	3	248	0.00	29.993 
19:30	34.1	34.1	34.1	72	26.0	1	3	248	0.00	29.994 
19:35	34.1	34.1	34.1	71	25.7	0	2	248	0.00	29.996 
19:40	34.1	34.1	34.1	71	25.7	1	3	248	0.00	29.994 
19:45	34.1	34.1	34.1	71	25.7	1	4	68	0.00	29.992 
19:50	34.3	34.3	34.3	71	25.9	1	5	248	0.00	29.992 
19:55	34.1	34.1	34.1	71	25.7	0	2	45	0.00	29.993 
20:00	34.0	34.0	34.0	71	25.6	1	3	248	0.00	29.991 
20:05	34.0	34.0	34.0	71	25.6	0	2	248	0.00	29.987 
20:10	33.8	33.8	33.8	71	25.4	0	3	248	0.00	29.982 
20:15	33.7	33.7	33.7	72	25.7	0	2	135	0.00	29.981 
20:20	33.2	33.2	33.2	72	25.2	0	1	135	0.00	29.982 
20:25	33.1	33.1	33.1	73	25.4	0	2	135	0.00	29.982 
20:30	32.8	32.8	32.8	73	25.1	0	1	135	0.00	29.981 
20:35	32.7	32.7	32.7	73	25.0	0	3	135	0.00	29.981 
20:40	32.7	32.7	32.7	74	25.3	0	2	225	0.00	29.980 
20:45	32.5	32.5	32.5	74	25.2	0	3	202	0.00	29.980 
20:50	32.5	32.5	32.5	75	25.5	0	3	225	0.00	29.980 
20:55	32.5	32.5	32.5	75	25.5	0	1	225	0.00	29.976 
21:00	32.4	32.4	32.4	75	25.4	0	2	135	0.00	29.972 
21:05	32.2	32.2	32.2	76	25.5	0	2	135	0.00	29.966 
21:10	32.2	32.2	32.2	76	25.5	0	3	45	0.00	29.965 
21:15	32.4	32.4	32.4	76	25.7	0	4	248	0.00	29.963 
21:20	32.4	32.4	32.4	76	25.7	0	1	248	0.00	29.963 
21:25	32.4	32.4	32.4	77	26.0	0	3	248	0.00	29.965 
21:30	32.4	32.4	32.4	77	26.0	0	4	248	0.00	29.965 
21:35	32.7	32.7	32.7	77	26.3	0	2	248	0.00	29.963 
21:40	32.9	32.9	32.9	77	26.5	0	2	248	0.00	29.961 
21:45	33.4	33.4	33.4	77	27.0	0	3	248	0.00	29.961 
21:50	33.7	33.7	33.7	76	27.0	1	4	90	0.00	29.959 
21:55	34.0	34.0	34.0	76	27.2	0	2	225	0.00	29.957 
22:00	34.1	34.1	34.1	76	27.3	0	2	248	0.00	29.957 
22:05	34.3	34.3	34.3	76	27.5	0	2	248	0.00	29.950 
22:10	34.6	34.6	34.6	76	27.8	1	3	270	0.00	29.948 
22:15	34.7	34.7	34.7	75	27.6	1	3	248	0.00	29.942 
22:20	34.9	34.9	34.9	75	27.8	0	2	270	0.00	29.942 
22:25	35.2	35.2	35.2	74	27.8	1	3	292	0.00	29.940 
22:30	35.5	35.5	35.5	74	28.0	1	5	248	0.00	29.940 
22:35	35.8	35.8	35.8	73	28.0	1	3	68	0.00	29.939 
22:40	36.0	36.0	36.0	73	28.2	1	5	248	0.00	29.939 
22:45	36.2	36.2	36.2	72	28.1	1	4	248	0.00	29.939 
22:50	36.5	36.5	36.5	71	28.0	1	4	248	0.00	29.936 
22:55	36.9	36.9	36.9	70	28.0	1	3	248	0.00	29.935 
23:00	37.0	37.0	37.0	69	27.8	2	7	248	0.00	29.934 
23:05	37.3	37.3	37.3	69	28.1	1	5	248	0.00	29.926 
23:10	37.3	37.3	37.3	69	28.1	2	5	248	0.00	29.926 
23:15	37.5	37.5	37.5	69	28.3	1	4	248	0.00	29.923 
23:20	37.5	37.5	37.5	69	28.3	1	5	248	0.00	29.922 
23:25	37.5	37.5	37.5	69	28.3	1	3	270	0.00	29.921 
23:30	37.5	37.5	37.5	69	28.3	1	7	315	0.00	29.921 
23:35	37.3	37.3	37.3	69	28.1	1	5	248	0.00	29.923 
23:40	37.3	37.3	37.3	70	28.4	1	4	248	0.00	29.924 
23:45	37.3	37.3	37.3	69	28.1	1	5	248	0.00	29.922 
23:50	37.3	37.3	37.3	70	28.4	1	3	248	0.00	29.922 
23:55	37.3	37.3	37.3	69	28.1	2	4	248	0.00	29.922 

CoCoRaHS
IN-AL-39
A2 Web Hosting
Creative Commons License
GoDaddy
Look for:

loaded 2017-10-20 19:53:39 • last modified 2010-11-18 10:43:29
Privacy PolicyDisclaimer
• wx.awcolley.com is powered by PmWiki v.2002016 •
• all content (unless otherwise noted) © 2017 A W Colley